createdAt,value
2019-02-09T00:01:57.316Z,14.17
2019-02-09T00:07:52.341Z,15.1
2019-02-09T00:13:47.346Z,13.39
2019-02-09T00:19:42.369Z,15.67
2019-02-09T00:25:37.336Z,15.31
2019-02-09T00:31:32.453Z,14.85
2019-02-09T00:37:27.393Z,14.62
2019-02-09T00:43:22.402Z,15.79
2019-02-09T00:49:17.384Z,12.31
2019-02-09T00:55:12.398Z,14.41
2019-02-09T01:01:07.403Z,14.27
2019-02-09T01:07:02.344Z,13.51
2019-02-09T01:12:57.432Z,13.02
2019-02-09T01:18:52.404Z,11.07
2019-02-09T01:24:47.387Z,10.9
2019-02-09T01:30:42.394Z,11.32
2019-02-09T01:36:37.387Z,11.71
2019-02-09T01:42:32.398Z,11.98
2019-02-09T01:48:27.371Z,11.98
2019-02-09T01:54:22.377Z,12.96
2019-02-09T02:00:17.386Z,13.39
2019-02-09T02:06:12.429Z,13.83
2019-02-09T02:12:07.428Z,12.21
2019-02-09T02:18:02.375Z,13.24
2019-02-09T02:23:57.392Z,13.35
2019-02-09T02:29:52.392Z,13.21
2019-02-09T02:35:47.394Z,12.83
2019-02-09T02:41:42.412Z,14.13
2019-02-09T02:47:37.593Z,14
2019-02-09T02:53:32.403Z,13.01
2019-02-09T02:59:27.409Z,12.64
2019-02-09T03:05:22.408Z,13.34
2019-02-09T03:11:17.485Z,14.17
2019-02-09T03:17:12.433Z,16.58
2019-02-09T03:23:07.443Z,16.01
2019-02-09T03:29:02.449Z,16.03
2019-02-09T03:34:57.422Z,14.01
2019-02-09T03:40:52.510Z,13.14
2019-02-09T03:46:47.435Z,12.64
2019-02-09T03:52:42.498Z,13.58
2019-02-09T03:58:37.445Z,13.3
2019-02-09T04:04:32.444Z,12.94
2019-02-09T04:10:27.463Z,12.72
2019-02-09T04:16:22.455Z,12.58
2019-02-09T04:22:17.472Z,12.34
2019-02-09T04:28:12.498Z,12.47
2019-02-09T04:34:07.514Z,12.33
2019-02-09T04:40:02.471Z,11.95
2019-02-09T04:45:57.490Z,12.86
2019-02-09T04:51:52.507Z,12.64
2019-02-09T04:57:47.477Z,13.42
2019-02-09T05:03:42.476Z,13.67
2019-02-09T05:09:37.505Z,14.2
2019-02-09T05:15:32.481Z,14.41
2019-02-09T05:21:27.481Z,14.73
2019-02-09T05:27:22.547Z,15.09
2019-02-09T05:33:17.506Z,14.64
2019-02-09T05:39:12.499Z,15.52
2019-02-09T05:45:07.516Z,13.18
2019-02-09T05:51:02.506Z,13.16
2019-02-09T05:56:57.523Z,13.32
2019-02-09T06:02:52.582Z,12.68
2019-02-09T06:08:47.524Z,13.46
2019-02-09T06:14:42.520Z,12.76
2019-02-09T06:20:37.548Z,14.14
2019-02-09T06:26:32.536Z,13.34
2019-02-09T06:32:27.512Z,13.78
2019-02-09T06:38:22.527Z,12.8
2019-02-09T06:44:17.522Z,14.61
2019-02-09T06:50:12.544Z,12.74
2019-02-09T06:56:07.548Z,12.83
2019-02-09T07:02:02.544Z,13.5
2019-02-09T07:07:57.551Z,13.13
2019-02-09T07:13:52.586Z,19.15
2019-02-09T07:19:47.565Z,20.8
2019-02-09T07:25:42.567Z,19.68
2019-02-09T07:31:37.568Z,19.65
2019-02-09T07:37:32.592Z,17.38
2019-02-09T07:43:27.570Z,15.96
2019-02-09T07:49:22.597Z,28.88
2019-02-09T07:55:17.595Z,25.54
2019-02-09T08:01:12.586Z,26.42
2019-02-09T08:07:07.594Z,27.77
2019-02-09T08:13:02.576Z,27.78
2019-02-09T08:18:57.582Z,23.5
2019-02-09T08:24:52.578Z,24.18
2019-02-09T08:30:47.600Z,30.07
2019-02-09T08:36:43.342Z,25.08
2019-02-09T08:42:37.589Z,23.56
2019-02-09T08:48:32.587Z,24.25
2019-02-09T08:54:27.641Z,23.61
2019-02-09T09:00:22.595Z,25.2
2019-02-09T09:06:17.698Z,24.1
2019-02-09T09:12:12.600Z,21.57
2019-02-09T09:18:07.619Z,30.05
2019-02-09T09:24:02.636Z,21.94
2019-02-09T09:29:57.618Z,21.38
2019-02-09T09:35:52.621Z,20.55
2019-02-09T09:41:50.665Z,23.02
2019-02-09T09:47:42.641Z,20.39
2019-02-09T09:53:37.632Z,20.13
2019-02-09T09:59:32.701Z,21.03
2019-02-09T10:05:27.670Z,22.87
2019-02-09T10:11:22.649Z,26.99
2019-02-09T10:17:17.637Z,22.8
2019-02-09T10:23:12.645Z,21.68
2019-02-09T10:29:07.641Z,22.78
2019-02-09T10:35:02.658Z,23.17
2019-02-09T10:40:57.708Z,24.83
2019-02-09T10:46:52.660Z,22.87
2019-02-09T10:52:47.664Z,24.02
2019-02-09T10:58:42.656Z,24.77
2019-02-09T11:04:37.668Z,25.83
2019-02-09T11:10:32.700Z,24.63
2019-02-09T11:16:27.737Z,27.55
2019-02-09T11:22:22.674Z,27.81
2019-02-09T11:28:17.682Z,27.09
2019-02-09T11:34:12.751Z,24.18
2019-02-09T11:40:07.706Z,25.18
2019-02-09T11:46:02.677Z,21.07
2019-02-09T11:51:57.723Z,19.91
2019-02-09T11:57:52.695Z,20.2
2019-02-09T12:03:47.721Z,27.85
2019-02-09T12:09:42.724Z,48.99
2019-02-09T12:15:37.705Z,26.6
2019-02-09T12:21:32.709Z,28.19
2019-02-09T12:27:27.714Z,28.37
2019-02-09T12:33:23.461Z,27.27
2019-02-09T12:39:17.748Z,27.31
2019-02-09T12:45:12.734Z,26.05
2019-02-09T12:51:07.742Z,26.34
2019-02-09T12:57:02.747Z,25.66
2019-02-09T13:02:57.738Z,26
2019-02-09T13:08:52.740Z,26.05
2019-02-09T13:14:47.765Z,27.88
2019-02-09T13:20:42.745Z,27.23
2019-02-09T13:26:37.808Z,27.27
2019-02-09T13:32:32.776Z,27.76
2019-02-09T13:38:27.791Z,39.26
2019-02-09T13:44:22.790Z,30.29
2019-02-09T13:50:17.772Z,29.69
2019-02-09T13:56:12.787Z,30.61
2019-02-09T14:02:07.774Z,28.76
2019-02-09T14:08:02.801Z,28.93
2019-02-09T14:13:57.783Z,29.09
2019-02-09T14:19:52.811Z,28.9
2019-02-09T14:25:47.816Z,26.79
2019-02-09T14:31:42.807Z,27.76
2019-02-09T14:37:37.801Z,26.75
2019-02-09T14:43:32.797Z,28.8
2019-02-09T14:49:27.794Z,27.66
2019-02-09T14:55:22.811Z,29.06
2019-02-09T15:01:17.796Z,30.66
2019-02-09T15:07:12.831Z,30.65
2019-02-09T15:13:07.821Z,33.2
2019-02-09T15:19:02.808Z,32.54
2019-02-09T15:24:57.821Z,34.21
2019-02-09T15:30:52.819Z,38.18
2019-02-09T15:36:47.815Z,38.27
2019-02-09T15:42:42.860Z,36.49
2019-02-09T15:48:37.843Z,37.27
2019-02-09T15:54:32.847Z,35.7
2019-02-09T16:00:27.837Z,40.77
2019-02-09T16:06:22.863Z,42.4
2019-02-09T16:12:17.933Z,41.58
2019-02-09T16:18:12.860Z,44.37
2019-02-09T16:24:07.867Z,44.25
2019-02-09T16:30:02.865Z,46.63
2019-02-09T16:35:57.861Z,48.74
2019-02-09T16:41:52.885Z,64.37
2019-02-09T16:47:47.864Z,59.27
2019-02-09T16:53:42.874Z,58.35
2019-02-09T16:59:37.867Z,60.74
2019-02-09T17:05:32.869Z,80.39
2019-02-09T17:11:27.890Z,70.78
2019-02-09T17:17:22.928Z,71.2
2019-02-09T17:23:17.926Z,63.64
2019-02-09T17:29:12.889Z,66.42
2019-02-09T17:35:07.925Z,75.23
2019-02-09T17:41:02.929Z,82.72
2019-02-09T17:46:57.910Z,85.19
2019-02-09T17:52:52.896Z,76.89
2019-02-09T17:58:47.915Z,75.76
2019-02-09T18:04:48.383Z,79.09
2019-02-09T18:10:39.248Z,77.53
2019-02-09T18:16:32.915Z,75.83
2019-02-09T18:22:27.902Z,79.14
2019-02-09T18:28:22.937Z,82.27
2019-02-09T18:34:17.952Z,80.27
2019-02-09T18:40:12.930Z,84.56
2019-02-09T18:46:07.935Z,82.64
2019-02-09T18:52:02.923Z,83.2
2019-02-09T18:58:01.174Z,80.31
2019-02-09T19:03:53.025Z,84.88
2019-02-09T19:09:47.955Z,111.22
2019-02-09T19:15:42.961Z,91.27
2019-02-09T19:21:37.957Z,86.24
2019-02-09T19:27:32.995Z,86.63
2019-02-09T19:33:27.965Z,83.5
2019-02-09T19:39:23.075Z,80.61
2019-02-09T19:45:17.952Z,78.2
2019-02-09T19:51:12.979Z,87.24
2019-02-09T19:57:07.991Z,86.94
2019-02-09T20:03:02.977Z,95.95
2019-02-09T20:08:58.001Z,98.76
2019-02-09T20:14:53.004Z,107.76
2019-02-09T20:20:48.004Z,93.2
2019-02-09T20:26:43.073Z,94.17
2019-02-09T20:32:37.994Z,95.25
2019-02-09T20:38:33.002Z,97.72
2019-02-09T20:44:28.014Z,96.47
2019-02-09T20:50:23.056Z,86.8
2019-02-09T20:56:18.030Z,84.52
2019-02-09T21:02:13.049Z,79.83
2019-02-09T21:08:08.051Z,62.79
2019-02-09T21:14:03.029Z,54.72
2019-02-09T21:19:58.023Z,49.26
2019-02-09T21:25:53.031Z,46.87
2019-02-09T21:31:48.079Z,49.14
2019-02-09T21:37:43.093Z,45.61
2019-02-09T21:43:38.078Z,48.44
2019-02-09T21:49:33.025Z,49.43
2019-02-09T21:55:28.067Z,49.84
2019-02-09T22:01:23.050Z,48.51
2019-02-09T22:07:18.046Z,48.46
2019-02-09T22:13:13.078Z,48.06
2019-02-09T22:19:08.055Z,50.43
2019-02-09T22:25:03.234Z,50.06
2019-02-09T22:30:58.244Z,51.96
2019-02-09T22:36:53.156Z,47.28
2019-02-09T22:42:48.083Z,47.23
2019-02-09T22:48:43.062Z,47.18
2019-02-09T22:54:38.071Z,48.37
2019-02-09T23:00:33.098Z,48.4
2019-02-09T23:06:28.080Z,45.52
2019-02-09T23:12:23.083Z,47.92
2019-02-09T23:18:18.098Z,47.84
2019-02-09T23:24:13.121Z,47.46
2019-02-09T23:30:08.130Z,46.45
2019-02-09T23:36:03.126Z,46.93
2019-02-09T23:41:58.108Z,43.54
2019-02-09T23:47:53.105Z,44.33
2019-02-09T23:53:48.147Z,42.1
2019-02-09T23:59:43.153Z,42.76
